createdAt,value
2022-08-22T00:01:17.533Z,20.10
2022-08-22T00:02:55.978Z,20.31
2022-08-22T00:03:12.643Z,22.47
2022-08-22T00:06:38.279Z,19.74
2022-08-22T00:11:49.645Z,19.96
2022-08-22T00:17:17.593Z,19.69
2022-08-22T00:22:35.451Z,19.74
2022-08-22T00:28:10.187Z,19.88
2022-08-22T00:33:29.244Z,19.76
2022-08-22T00:38:35.412Z,19.48
2022-08-22T00:44:01.987Z,19.75
2022-08-22T00:49:22.458Z,19.75
2022-08-22T00:54:45.607Z,19.68
2022-08-22T01:00:14.952Z,19.68
2022-08-22T01:05:47.611Z,19.67
2022-08-22T01:10:49.858Z,19.55
2022-08-22T01:16:23.704Z,19.24
2022-08-22T01:21:52.130Z,19.52
2022-08-22T01:27:15.918Z,19.49
2022-08-22T01:32:49.496Z,19.41
2022-08-22T01:38:22.757Z,19.10
2022-08-22T01:43:59.624Z,19.15
2022-08-22T01:49:00.553Z,18.96
2022-08-22T01:54:08.334Z,18.53
2022-08-22T01:59:21.142Z,18.76
2022-08-22T02:04:47.484Z,18.82
2022-08-22T02:10:01.610Z,18.82
2022-08-22T02:15:14.949Z,18.62
2022-08-22T02:20:23.072Z,18.74
2022-08-22T02:25:36.457Z,18.73
2022-08-22T02:30:41.658Z,18.72
2022-08-22T02:35:54.912Z,18.71
2022-08-22T02:41:10.851Z,18.75
2022-08-22T02:46:32.799Z,18.39
2022-08-22T02:52:04.459Z,18.74
2022-08-22T02:57:14.785Z,18.74
2022-08-22T03:02:40.321Z,18.59
2022-08-22T03:07:49.500Z,18.44
2022-08-22T03:13:00.776Z,18.64
2022-08-22T03:18:40.277Z,18.72
2022-08-22T03:23:57.006Z,18.68
2022-08-22T03:29:35.342Z,18.50
2022-08-22T03:34:38.779Z,18.64
2022-08-22T03:39:51.689Z,18.65
2022-08-22T03:45:32.732Z,18.64
2022-08-22T03:50:54.444Z,18.71
2022-08-22T03:56:36.748Z,18.82
2022-08-22T04:02:24.797Z,18.85
2022-08-22T04:07:42.729Z,18.78
2022-08-22T04:13:16.130Z,18.91
2022-08-22T04:18:38.231Z,18.65
2022-08-22T04:23:52.424Z,18.07
2022-08-22T04:29:05.056Z,18.66
2022-08-22T04:34:19.077Z,18.86
2022-08-22T04:39:34.774Z,19.04
2022-08-22T04:44:44.846Z,19.07
2022-08-22T04:49:56.304Z,18.92
2022-08-22T04:54:58.451Z,19.09
2022-08-22T05:00:07.023Z,18.88
2022-08-22T05:05:13.993Z,18.98
2022-08-22T05:10:19.214Z,19.15
2022-08-22T05:15:27.916Z,19.19
2022-08-22T05:20:31.530Z,18.99
2022-08-22T05:25:36.379Z,18.79
2022-08-22T05:30:39.552Z,19.20
2022-08-22T05:35:52.459Z,19.04
2022-08-22T05:41:08.171Z,18.97
2022-08-22T05:46:36.075Z,19.22
2022-08-22T05:52:00.286Z,19.28
2022-08-22T05:57:17.539Z,19.25
2022-08-22T06:02:30.084Z,19.02
2022-08-22T06:07:42.026Z,19.31
2022-08-22T06:13:03.948Z,19.38
2022-08-22T06:18:09.590Z,19.35
2022-08-22T06:23:16.700Z,19.16
2022-08-22T06:28:23.503Z,19.43
2022-08-22T06:33:31.563Z,19.34
2022-08-22T06:39:06.475Z,19.27
2022-08-22T06:44:10.789Z,19.50
2022-08-22T06:49:13.747Z,19.28
2022-08-22T06:54:22.552Z,19.85
2022-08-22T06:59:28.652Z,19.63
2022-08-22T07:04:31.919Z,18.90
2022-08-22T07:09:41.725Z,18.64
2022-08-22T07:14:49.828Z,17.98
2022-08-22T07:20:22.684Z,20.13
2022-08-22T07:25:25.812Z,19.70
2022-08-22T07:30:39.918Z,19.83
2022-08-22T07:35:53.225Z,20.93
2022-08-22T07:41:12.416Z,21.38
2022-08-22T07:46:18.895Z,21.70
2022-08-22T07:51:35.827Z,21.85
2022-08-22T07:57:02.189Z,22.08
2022-08-22T08:02:09.429Z,22.18
2022-08-22T08:07:14.761Z,22.34
2022-08-22T08:12:19.668Z,22.35
2022-08-22T08:17:32.232Z,22.28
2022-08-22T08:22:35.091Z,22.69
2022-08-22T08:27:57.410Z,22.59
2022-08-22T08:33:24.942Z,22.88
2022-08-22T08:38:26.855Z,22.95
2022-08-22T08:43:51.161Z,23.32
2022-08-22T08:49:08.783Z,23.51
2022-08-22T08:54:29.690Z,23.75
2022-08-22T09:00:12.303Z,23.97
2022-08-22T09:05:48.568Z,24.19
2022-08-22T09:11:15.997Z,24.46
2022-08-22T09:16:30.781Z,24.74
2022-08-22T09:22:14.689Z,25.01
2022-08-22T09:27:39.664Z,25.23
2022-08-22T09:32:57.528Z,25.43
2022-08-22T09:38:23.885Z,25.55
2022-08-22T09:43:48.770Z,25.56
2022-08-22T09:49:12.873Z,25.68
2022-08-22T09:54:20.989Z,25.75
2022-08-22T09:59:44.174Z,25.84
2022-08-22T10:04:58.196Z,26.25
2022-08-22T10:10:14.100Z,26.05
2022-08-22T10:15:25.731Z,26.19
2022-08-22T10:20:42.778Z,26.59
2022-08-22T10:25:57.200Z,26.32
2022-08-22T10:31:09.489Z,26.53
2022-08-22T10:36:19.856Z,25.91
2022-08-22T10:41:32.307Z,26.61
2022-08-22T10:46:50.561Z,26.54
2022-08-22T10:52:09.679Z,26.60
2022-08-22T10:57:41.505Z,26.63
2022-08-22T11:02:45.049Z,26.58
2022-08-22T11:08:11.244Z,26.65
2022-08-22T11:13:28.562Z,26.65
2022-08-22T11:19:14.696Z,26.72
2022-08-22T11:24:57.079Z,26.84
2022-08-22T11:30:19.675Z,26.58
2022-08-22T11:35:32.501Z,26.78
2022-08-22T11:41:31.498Z,26.87
2022-08-22T11:46:39.849Z,26.45
2022-08-22T11:52:17.444Z,26.89
2022-08-22T11:57:34.307Z,26.89
2022-08-22T12:02:48.163Z,26.86
2022-08-22T12:08:01.446Z,26.75
2022-08-22T12:13:35.201Z,26.90
2022-08-22T12:19:00.134Z,26.93
2022-08-22T12:24:20.774Z,26.31
2022-08-22T12:30:12.989Z,26.93
2022-08-22T12:35:40.584Z,26.98
2022-08-22T12:40:58.106Z,27.01
2022-08-22T12:46:12.953Z,26.91
2022-08-22T12:51:25.159Z,26.96
2022-08-22T12:56:54.774Z,27.05
2022-08-22T13:02:01.955Z,26.91
2022-08-22T13:07:26.872Z,27.00
2022-08-22T13:12:46.927Z,26.88
2022-08-22T13:17:51.662Z,27.19
2022-08-22T13:22:54.824Z,27.03
2022-08-22T13:28:00.799Z,26.98
2022-08-22T13:33:10.967Z,27.07
2022-08-22T13:38:26.244Z,27.09
2022-08-22T13:43:50.039Z,26.80
2022-08-22T13:49:01.000Z,26.86
2022-08-22T13:54:27.063Z,27.03
2022-08-22T13:59:53.624Z,27.05
2022-08-22T14:05:04.498Z,27.04
2022-08-22T14:10:23.867Z,26.76
2022-08-22T14:15:45.426Z,26.89
2022-08-22T14:20:49.057Z,26.81
2022-08-22T14:25:51.937Z,26.81
2022-08-22T14:31:14.628Z,26.60
2022-08-22T14:36:20.949Z,26.65
2022-08-22T14:41:52.587Z,26.60
2022-08-22T14:47:01.302Z,26.89
2022-08-22T14:52:08.789Z,26.82
2022-08-22T14:57:20.163Z,26.68
2022-08-22T15:02:32.118Z,26.78
2022-08-22T15:07:37.537Z,26.63
2022-08-22T15:12:50.106Z,26.75
2022-08-22T15:17:53.316Z,26.67
2022-08-22T15:22:59.319Z,26.62
2022-08-22T15:28:13.931Z,26.38
2022-08-22T15:33:27.060Z,26.51
2022-08-22T15:38:36.329Z,26.38
2022-08-22T15:43:48.346Z,26.44
2022-08-22T15:49:07.283Z,26.25
2022-08-22T15:54:24.898Z,26.14
2022-08-22T15:59:53.504Z,25.99
2022-08-22T16:05:25.869Z,26.26
2022-08-22T16:10:32.807Z,26.11
2022-08-22T16:16:30.530Z,26.18
2022-08-22T16:21:32.764Z,26.01
2022-08-22T16:26:43.096Z,25.95
2022-08-22T16:31:48.214Z,25.88
2022-08-22T16:37:08.884Z,25.90
2022-08-22T16:42:14.621Z,25.50
2022-08-22T16:47:42.059Z,25.52
2022-08-22T16:52:54.616Z,25.40
2022-08-22T16:58:08.928Z,25.37
2022-08-22T17:03:18.515Z,25.05
2022-08-22T17:08:36.596Z,24.80
2022-08-22T17:14:09.276Z,24.86
2022-08-22T17:19:43.734Z,24.87
2022-08-22T17:24:49.569Z,24.76
2022-08-22T17:30:10.589Z,24.73
2022-08-22T17:35:55.481Z,24.80
2022-08-22T17:41:32.464Z,24.66
2022-08-22T17:46:46.924Z,24.56
2022-08-22T17:52:15.383Z,24.55
2022-08-22T17:57:31.376Z,24.43
2022-08-22T18:02:53.861Z,24.14
2022-08-22T18:08:36.957Z,24.29
2022-08-22T18:13:33.914Z,24.20
2022-08-22T18:19:15.041Z,24.29
2022-08-22T18:24:47.098Z,24.11
2022-08-22T18:30:07.213Z,24.13
2022-08-22T18:35:15.955Z,24.02
2022-08-22T18:40:34.304Z,24.24
2022-08-22T18:45:48.955Z,24.21
2022-08-22T18:50:51.833Z,24.04
2022-08-22T18:55:57.446Z,23.95
2022-08-22T19:01:19.556Z,23.76
2022-08-22T19:06:28.672Z,23.99
2022-08-22T19:11:37.164Z,23.94
2022-08-22T19:17:04.290Z,24.00
2022-08-22T19:22:29.308Z,23.96
2022-08-22T19:27:34.243Z,23.73
2022-08-22T19:32:45.807Z,23.79
2022-08-22T19:37:53.917Z,23.59
2022-08-22T19:42:56.703Z,23.51
2022-08-22T19:48:13.630Z,23.45
2022-08-22T19:53:53.990Z,23.69
2022-08-22T19:59:14.009Z,23.35
2022-08-22T20:04:53.003Z,23.64
2022-08-22T20:10:09.444Z,23.44
2022-08-22T20:15:24.449Z,23.20
2022-08-22T20:20:35.479Z,23.27
2022-08-22T20:25:44.089Z,23.22
2022-08-22T20:30:50.737Z,23.11
2022-08-22T20:35:56.364Z,23.02
2022-08-22T20:41:13.424Z,23.13
2022-08-22T20:46:21.261Z,23.04
2022-08-22T20:51:29.499Z,22.93
2022-08-22T20:56:53.013Z,22.91
2022-08-22T21:02:16.617Z,22.92
2022-08-22T21:07:26.031Z,22.57
2022-08-22T21:12:28.376Z,22.60
2022-08-22T21:17:34.528Z,22.61
2022-08-22T21:22:41.822Z,22.21
2022-08-22T21:27:47.500Z,22.19
2022-08-22T21:32:55.551Z,22.21
2022-08-22T21:37:59.966Z,21.96
2022-08-22T21:43:05.911Z,22.17
2022-08-22T21:48:31.264Z,22.22
2022-08-22T21:53:33.517Z,21.73
2022-08-22T21:58:37.389Z,21.84
2022-08-22T22:03:39.973Z,21.73
2022-08-22T22:08:42.324Z,21.69
2022-08-22T22:13:45.268Z,21.58
2022-08-22T22:18:47.531Z,21.54
2022-08-22T22:23:50.889Z,21.67
2022-08-22T22:28:53.285Z,21.35
2022-08-22T22:33:55.603Z,21.40
2022-08-22T22:38:57.802Z,21.33
2022-08-22T22:44:03.401Z,21.50
2022-08-22T22:49:06.131Z,21.51
2022-08-22T22:54:08.422Z,21.41
2022-08-22T22:59:15.724Z,21.40
2022-08-22T23:04:19.610Z,21.47
2022-08-22T23:09:21.861Z,21.09
2022-08-22T23:14:35.156Z,21.38
2022-08-22T23:19:39.132Z,21.05
2022-08-22T23:24:42.202Z,21.20
2022-08-22T23:29:44.599Z,21.05
2022-08-22T23:34:48.943Z,21.11
2022-08-22T23:39:51.417Z,21.11
2022-08-22T23:44:53.718Z,20.89
2022-08-22T23:49:55.923Z,20.94
2022-08-22T23:54:58.203Z,20.97
